Time;durP1;ratioP1;P1;durP2;ratioP2;P2;SDS_P1;SDS_P2;PMS_P1;PMS_P2;Temp;Humidity;BMP_temperature;BMP_pressure;BME280_temperature;BME280_humidity;BME280_pressure;Samples;Min_cycle;Max_cycle;Signal;HPM_P1;HPM_P2
2023/01/01 00:01:47;;;;;;;;;;;;;;;11.89;97.5791;100626.2;;;;-74
2023/01/01 00:06:47;;;;;;;;;;;;;;;11.9;97.66797;100641.3;;;;-72
2023/01/01 00:11:47;;;;;;;;;;;;;;;11.95;97.09473;100626.3;;;;-73
2023/01/01 00:16:47;;;;;;;;;;;;;;;11.95;96.9707;100644.6;;;;-73
2023/01/01 00:21:47;;;;;;;;;;;;;;;11.98;96.4707;100634.9;;;;-73
2023/01/01 00:25:46;;;;;;;91.6;46.6;;;;;;;;;;;;;-73
2023/01/01 00:26:47;;;;;;;;;;;;;;;12;96.47461;100634.7;;;;-72
2023/01/01 00:31:47;;;;;;;;;;;;;;;12.02;96.13867;100644;;;;-73
2023/01/01 00:36:48;;;;;;;;;;;;;;;12.04;96.64844;100642;;;;-73
2023/01/01 00:41:47;;;;;;;;;;;;;;;12.06;96.07813;100630.7;;;;-77
2023/01/01 00:46:47;;;;;;;;;;;;;;;12.11;96.22266;100650.9;;;;-77
2023/01/01 00:51:47;;;;;;;;;;;;;;;12.07;96.86621;100629.5;;;;-77
2023/01/01 00:55:48;;;;;;;51.2;26;;;;;;;;;;;;;-76
2023/01/01 00:56:47;;;;;;;;;;;;;;;12.06;96.74316;100628.4;;;;-76
2023/01/01 01:01:49;;;;;;;;;;;;;;;12.05;97.09277;100652.6;;;;-76
2023/01/01 01:06:47;;;;;;;;;;;;;;;11.99;97.70996;100660.2;;;;-76
2023/01/01 01:11:48;;;;;;;;;;;;;;;11.97;98.14746;100673.5;;;;-76
2023/01/01 01:16:47;;;;;;;;;;;;;;;11.98;97.76074;100675.8;;;;-77
2023/01/01 01:21:48;;;;;;;;;;;;;;;11.97;97.62891;100661;;;;-77
2023/01/01 01:25:49;;;;;;;22.6;10.3;;;;;;;;;;;;;-76
2023/01/01 01:26:47;;;;;;;;;;;;;;;11.98;97.24219;100660.4;;;;-76
2023/01/01 01:31:47;;;;;;;;;;;;;;;11.96;96.95313;100646.9;;;;-77
2023/01/01 01:36:48;;;;;;;;;;;;;;;12.01;96.10156;100657;;;;-73
2023/01/01 01:41:47;;;;;;;;;;;;;;;11.99;96.40625;100652.9;;;;-73
2023/01/01 01:46:48;;;;;;;;;;;;;;;12;95.90039;100665.6;;;;-76
2023/01/01 01:51:48;;;;;;;;;;;;;;;12;95.63574;100667.3;;;;-76
2023/01/01 01:55:51;;;;;;;19.1;7.7;;;;;;;;;;;;;-76
2023/01/01 01:56:51;;;;;;;;;;;;;;;11.99;95.32422;100674.3;;;;-76
2023/01/01 02:01:47;;;;;;;;;;;;;;;11.98;94.93555;100696.5;;;;-76
2023/01/01 02:06:48;;;;;;;;;;;;;;;11.98;94.48242;100690;;;;-76
2023/01/01 02:11:47;;;;;;;;;;;;;;;12.02;93.81543;100682.1;;;;-75
2023/01/01 02:16:50;;;;;;;;;;;;;;;12.01;94.31055;100689.8;;;;-76
2023/01/01 02:21:52;;;;;;;;;;;;;;;12.03;94.03809;100697.9;;;;-76
2023/01/01 02:26:01;;;;;;;11.8;4.1;;;;;;;;;;;;;-76
2023/01/01 02:26:52;;;;;;;;;;;;;;;12.04;94.75;100727.5;;;;-77
2023/01/01 02:31:51;;;;;;;;;;;;;;;12.05;95.98926;100724.4;;;;-77
2023/01/01 02:36:51;;;;;;;;;;;;;;;11.99;96.29395;100706.3;;;;-76
2023/01/01 02:41:49;;;;;;;;;;;;;;;11.99;96.45117;100697.9;;;;-77
2023/01/01 02:46:50;;;;;;;;;;;;;;;12;95.90039;100707.5;;;;-73
2023/01/01 02:51:53;;;;;;;;;;;;;;;12.07;95.03027;100713.2;;;;-73
2023/01/01 02:56:01;;;;;;;11;2.3;;;;;;;;;;;;;-74
2023/01/01 02:56:52;;;;;;;;;;;;;;;12.14;94.01953;100741.2;;;;-75
2023/01/01 03:01:51;;;;;;;;;;;;;;;12.17;93.90332;100721;;;;-74
2023/01/01 03:06:53;;;;;;;;;;;;;;;12.17;93.96973;100730.8;;;;-73
2023/01/01 03:11:52;;;;;;;;;;;;;;;12.19;93.36523;100746.7;;;;-73
2023/01/01 03:16:51;;;;;;;;;;;;;;;12.18;93.39648;100742.2;;;;-73
2023/01/01 03:21:51;;;;;;;;;;;;;;;12.22;92.59863;100766.9;;;;-74
2023/01/01 03:25:55;;;;;;;10.3;1.9;;;;;;;;;;;;;-74
2023/01/01 03:26:48;;;;;;;;;;;;;;;12.24;92.97656;100775;;;;-74
2023/01/01 03:31:49;;;;;;;;;;;;;;;12.19;93.91895;100765.2;;;;-73
2023/01/01 03:36:49;;;;;;;;;;;;;;;12.1;95.3252;100780;;;;-74
2023/01/01 03:41:50;;;;;;;;;;;;;;;12;96.38672;100777.7;;;;-74
2023/01/01 03:46:48;;;;;;;;;;;;;;;11.89;96.87305;100767.8;;;;-74
2023/01/01 03:52:00;;;;;;;;;;;;;;;11.79;96.68555;100788.5;;;;-74
2023/01/01 03:55:58;;;;;;;11.3;2.1;;;;;;;;;;;;;-74
2023/01/01 03:56:49;;;;;;;;;;;;;;;11.74;96.55176;100782.3;;;;-73
2023/01/01 04:01:51;;;;;;;;;;;;;;;11.7;96.40918;100811.4;;;;-73
2023/01/01 04:06:48;;;;;;;;;;;;;;;11.66;96.48926;100829.5;;;;-74
2023/01/01 04:12:04;;;;;;;;;;;;;;;11.61;95.80176;100840.7;;;;-75
2023/01/01 04:16:47;;;;;;;;;;;;;;;11.54;94.70801;100837.7;;;;-74
2023/01/01 04:21:47;;;;;;;;;;;;;;;11.5;93.94727;100822.7;;;;-73
2023/01/01 04:25:57;;;;;;;12.3;1.5;;;;;;;;;;;;;-73
2023/01/01 04:26:47;;;;;;;;;;;;;;;11.45;94.18066;100830.8;;;;-73
2023/01/01 04:31:47;;;;;;;;;;;;;;;11.41;93.72949;100849.9;;;;-72
2023/01/01 04:36:50;;;;;;;;;;;;;;;11.36;93.45313;100847.1;;;;-74
2023/01/01 04:41:49;;;;;;;;;;;;;;;11.3;93.19824;100868.5;;;;-74
2023/01/01 04:46:47;;;;;;;;;;;;;;;11.24;93.51758;100877.9;;;;-73
2023/01/01 04:51:47;;;;;;;;;;;;;;;11.18;93.50391;100867.5;;;;-73
2023/01/01 04:55:59;;;;;;;7.1;1.3;;;;;;;;;;;;;-72
2023/01/01 04:56:51;;;;;;;;;;;;;;;11.13;93.8125;100882.2;;;;-73
2023/01/01 05:01:47;;;;;;;;;;;;;;;11.1;93.59766;100881.6;;;;-74
2023/01/01 05:06:47;;;;;;;;;;;;;;;11.05;93.50879;100889.5;;;;-73
2023/01/01 05:11:47;;;;;;;;;;;;;;;11;93.21387;100888.3;;;;-73
2023/01/01 05:16:47;;;;;;;;;;;;;;;10.98;93.30762;100913.7;;;;-73
2023/01/01 05:21:48;;;;;;;;;;;;;;;10.94;93.74023;100906.4;;;;-73
2023/01/01 05:26:00;;;;;;;14.8;1.7;;;;;;;;;;;;;-73
2023/01/01 05:26:48;;;;;;;;;;;;;;;10.91;93.89844;100921.4;;;;-73
2023/01/01 05:31:48;;;;;;;;;;;;;;;10.89;94.13867;100930.3;;;;-73
2023/01/01 05:36:50;;;;;;;;;;;;;;;10.89;94.31152;100952.7;;;;-74
2023/01/01 05:41:47;;;;;;;;;;;;;;;10.87;94.55176;100936;;;;-73
2023/01/01 05:46:47;;;;;;;;;;;;;;;10.87;94.87207;100969.1;;;;-73
2023/01/01 05:51:47;;;;;;;;;;;;;;;10.86;94.95605;100980.6;;;;-73
2023/01/01 05:56:01;;;;;;;15.7;2;;;;;;;;;;;;;-73
2023/01/01 05:56:48;;;;;;;;;;;;;;;10.85;95.25391;100985.8;;;;-73
2023/01/01 06:01:47;;;;;;;;;;;;;;;10.84;95.31641;100983.8;;;;-75
2023/01/01 06:06:47;;;;;;;;;;;;;;;10.84;95.00781;100986.2;;;;-74
2023/01/01 06:11:50;;;;;;;;;;;;;;;10.83;95.25;101025.9;;;;-73
2023/01/01 06:16:47;;;;;;;;;;;;;;;10.8;95.47559;101029.4;;;;-73
2023/01/01 06:21:47;;;;;;;;;;;;;;;10.78;95.56836;101021.7;;;;-74
2023/01/01 06:26:06;;;;;;;16.4;2.2;;;;;;;;;;;;;-73
2023/01/01 06:26:47;;;;;;;;;;;;;;;10.76;95.84863;101022.5;;;;-73
2023/01/01 06:31:47;;;;;;;;;;;;;;;10.74;95.5166;101032.5;;;;-74
2023/01/01 06:36:47;;;;;;;;;;;;;;;10.72;95.46875;101043;;;;-73
2023/01/01 06:41:47;;;;;;;;;;;;;;;10.71;95.72949;101038.4;;;;-74
2023/01/01 06:46:47;;;;;;;;;;;;;;;10.7;95.95801;101046.3;;;;-73
2023/01/01 06:51:47;;;;;;;;;;;;;;;10.69;96.21875;101069.8;;;;-75
2023/01/01 06:56:03;;;;;;;12.9;1.8;;;;;;;;;;;;;-74
2023/01/01 06:56:48;;;;;;;;;;;;;;;10.67;96.60254;101078.2;;;;-74
2023/01/01 07:01:47;;;;;;;;;;;;;;;10.67;96.55762;101109.5;;;;-74
2023/01/01 07:06:47;;;;;;;;;;;;;;;10.65;96.80762;101114.5;;;;-73
2023/01/01 07:11:47;;;;;;;;;;;;;;;10.63;96.84766;101121.2;;;;-73
2023/01/01 07:16:47;;;;;;;;;;;;;;;10.61;97.06152;101148.9;;;;-72
2023/01/01 07:21:48;;;;;;;;;;;;;;;10.58;97.16602;101136.6;;;;-75
2023/01/01 07:26:05;;;;;;;16.7;1.9;;;;;;;;;;;;;-73
2023/01/01 07:26:48;;;;;;;;;;;;;;;10.56;96.93945;101150.9;;;;-73
2023/01/01 07:31:47;;;;;;;;;;;;;;;10.54;96.8252;101165.1;;;;-73
2023/01/01 07:36:47;;;;;;;;;;;;;;;10.5;96.79492;101175.8;;;;-74
2023/01/01 07:41:47;;;;;;;;;;;;;;;10.48;96.84668;101201;;;;-74
2023/01/01 07:46:47;;;;;;;;;;;;;;;10.46;96.87305;101213.2;;;;-73
2023/01/01 07:51:47;;;;;;;;;;;;;;;10.44;96.78125;101235.9;;;;-73
2023/01/01 07:56:06;;;;;;;17.7;2.3;;;;;;;;;;;;;-74
2023/01/01 07:56:47;;;;;;;;;;;;;;;10.41;96.97363;101234.1;;;;-74
2023/01/01 08:01:47;;;;;;;;;;;;;;;10.37;97.16113;101237.7;;;;-75
2023/01/01 08:06:47;;;;;;;;;;;;;;;10.35;97.15723;101241.8;;;;-74
2023/01/01 08:11:48;;;;;;;;;;;;;;;10.33;96.94629;101244;;;;-74
2023/01/01 08:16:47;;;;;;;;;;;;;;;10.3;96.75293;101251.6;;;;-73
2023/01/01 08:21:47;;;;;;;;;;;;;;;10.28;96.93457;101257.5;;;;-74
2023/01/01 08:26:09;;;;;;;16.8;2;;;;;;;;;;;;;-74
2023/01/01 08:26:47;;;;;;;;;;;;;;;10.27;96.76758;101270.7;;;;-74
2023/01/01 08:31:47;;;;;;;;;;;;;;;10.25;96.73047;101272;;;;-72
2023/01/01 08:36:55;;;;;;;;;;;;;;;10.24;96.54102;101261.1;;;;-74
2023/01/01 08:41:47;;;;;;;;;;;;;;;10.22;96.84473;101275.7;;;;-73
2023/01/01 08:46:47;;;;;;;;;;;;;;;10.21;96.59863;101292.8;;;;-74
2023/01/01 08:51:47;;;;;;;;;;;;;;;10.22;96.87598;101292.7;;;;-72
2023/01/01 08:56:09;;;;;;;11.5;1.4;;;;;;;;;;;;;-72
2023/01/01 08:56:47;;;;;;;;;;;;;;;10.21;96.71973;101289.8;;;;-73
2023/01/01 09:01:47;;;;;;;;;;;;;;;10.22;96.91113;101296;;;;-73
2023/01/01 09:06:47;;;;;;;;;;;;;;;10.24;96.7373;101298.4;;;;-74
2023/01/01 09:11:52;;;;;;;;;;;;;;;10.25;96.69727;101294.3;;;;-72
2023/01/01 09:16:47;;;;;;;;;;;;;;;10.27;96.32715;101298.1;;;;-73
2023/01/01 09:21:47;;;;;;;;;;;;;;;10.3;96.20117;101312.4;;;;-74
2023/01/01 09:26:11;;;;;;;15.2;1.9;;;;;;;;;;;;;-75
2023/01/01 09:26:48;;;;;;;;;;;;;;;10.32;96.27051;101306;;;;-74
2023/01/01 09:31:47;;;;;;;;;;;;;;;10.35;96.00391;101308.5;;;;-73
2023/01/01 09:36:50;;;;;;;;;;;;;;;10.38;95.71289;101322.7;;;;-73
2023/01/01 09:41:57;;;;;;;;;;;;;;;10.39;95.5498;101326.7;;;;-73
2023/01/01 09:46:47;;;;;;;;;;;;;;;10.39;95.3418;101318.6;;;;-74
2023/01/01 09:51:51;;;;;;;;;;;;;;;10.38;95.33789;101328.3;;;;-77
2023/01/01 09:56:14;;;;;;;12.5;1.5;;;;;;;;;;;;;-73
2023/01/01 09:56:48;;;;;;;;;;;;;;;10.37;95.07422;101365.9;;;;-73
2023/01/01 10:01:50;;;;;;;;;;;;;;;10.41;95.06836;101344.1;;;;-73
2023/01/01 10:06:50;;;;;;;;;;;;;;;10.44;94.8457;101366.7;;;;-74
2023/01/01 10:11:56;;;;;;;;;;;;;;;10.51;94.94727;101378;;;;-73
2023/01/01 10:16:49;;;;;;;;;;;;;;;10.56;94.88184;101367.1;;;;-73
2023/01/01 10:21:48;;;;;;;;;;;;;;;10.6;94.58203;101369.2;;;;-76
2023/01/01 10:26:15;;;;;;;7.5;1.4;;;;;;;;;;;;;-77
2023/01/01 10:26:47;;;;;;;;;;;;;;;10.65;94.6709;101363.3;;;;-77
2023/01/01 10:31:48;;;;;;;;;;;;;;;10.69;94.7002;101354.9;;;;-77
2023/01/01 10:36:47;;;;;;;;;;;;;;;10.69;94.43555;101344.7;;;;-75
2023/01/01 10:41:48;;;;;;;;;;;;;;;10.7;94.47266;101345.9;;;;-77
2023/01/01 10:46:52;;;;;;;;;;;;;;;10.71;94.38477;101357.5;;;;-79
2023/01/01 10:51:50;;;;;;;;;;;;;;;10.72;94.36426;101359;;;;-74
2023/01/01 10:56:17;;;;;;;13.9;1.6;;;;;;;;;;;;;-73
2023/01/01 10:56:49;;;;;;;;;;;;;;;10.74;94.51172;101374.9;;;;-74
2023/01/01 11:01:47;;;;;;;;;;;;;;;10.79;93.9834;101394.8;;;;-74
2023/01/01 11:06:48;;;;;;;;;;;;;;;10.82;94.00195;101392.4;;;;-78
2023/01/01 11:11:49;;;;;;;;;;;;;;;10.86;93.67871;101392.2;;;;-77
2023/01/01 11:16:48;;;;;;;;;;;;;;;10.89;94.08398;101401.6;;;;-77
2023/01/01 11:21:49;;;;;;;;;;;;;;;10.94;93.92871;101405.2;;;;-77
2023/01/01 11:26:23;;;;;;;11.2;1.3;;;;;;;;;;;;;-78
2023/01/01 11:26:47;;;;;;;;;;;;;;;11.05;93.70898;101419.5;;;;-76
2023/01/01 11:31:49;;;;;;;;;;;;;;;11.18;93.42676;101421.1;;;;-76
2023/01/01 11:36:47;;;;;;;;;;;;;;;11.3;93.30859;101422.6;;;;-76
2023/01/01 11:41:51;;;;;;;;;;;;;;;11.35;92.98926;101410.6;;;;-77
2023/01/01 11:46:49;;;;;;;;;;;;;;;11.37;92.58301;101398.9;;;;-78
2023/01/01 11:51:47;;;;;;;;;;;;;;;11.38;92.44238;101396.4;;;;-77
2023/01/01 11:56:18;;;;;;;9.4;1.6;;;;;;;;;;;;;-76
2023/01/01 11:56:48;;;;;;;;;;;;;;;11.41;92.04004;101394.3;;;;-77
2023/01/01 12:01:50;;;;;;;;;;;;;;;11.4;91.89453;101408.6;;;;-76
2023/01/01 12:06:52;;;;;;;;;;;;;;;11.4;91.97168;101408.2;;;;-73
2023/01/01 12:11:49;;;;;;;;;;;;;;;11.37;91.40234;101400.8;;;;-74
2023/01/01 12:16:53;;;;;;;;;;;;;;;11.39;92.13477;101420.9;;;;-73
2023/01/01 12:21:49;;;;;;;;;;;;;;;11.38;91.38184;101412.6;;;;-73
2023/01/01 12:26:22;;;;;;;15.2;1.6;;;;;;;;;;;;;-73
2023/01/01 12:26:54;;;;;;;;;;;;;;;11.4;91.46387;101399;;;;-73
2023/01/01 12:31:52;;;;;;;;;;;;;;;11.38;91.63672;101379.3;;;;-73
2023/01/01 12:36:50;;;;;;;;;;;;;;;11.36;91.7207;101385.9;;;;-73
2023/01/01 12:41:55;;;;;;;;;;;;;;;11.38;91.45996;101392.3;;;;-74
2023/01/01 12:46:51;;;;;;;;;;;;;;;11.38;91.4043;101400;;;;-74
2023/01/01 12:51:53;;;;;;;;;;;;;;;11.36;90.99023;101410.2;;;;-76
2023/01/01 12:56:24;;;;;;;11.2;1.7;;;;;;;;;;;;;-73
2023/01/01 12:56:49;;;;;;;;;;;;;;;11.36;91.38965;101426.7;;;;-73
2023/01/01 13:01:48;;;;;;;;;;;;;;;11.36;91.23242;101429.1;;;;-74
2023/01/01 13:06:51;;;;;;;;;;;;;;;11.32;90.89551;101425.5;;;;-72
2023/01/01 13:11:51;;;;;;;;;;;;;;;11.33;91.05078;101423.4;;;;-74
2023/01/01 13:16:51;;;;;;;;;;;;;;;11.3;91.36523;101430.2;;;;-73
2023/01/01 13:21:48;;;;;;;;;;;;;;;11.26;91.16797;101420.2;;;;-74
2023/01/01 13:26:31;;;;;;;11.8;1.6;;;;;;;;;;;;;-73
2023/01/01 13:26:48;;;;;;;;;;;;;;;11.25;91.43262;101416;;;;-74
2023/01/01 13:31:58;;;;;;;;;;;;;;;11.23;90.8418;101420.2;;;;-76
2023/01/01 13:36:47;;;;;;;;;;;;;;;11.21;91.13867;101418.1;;;;-73
2023/01/01 13:41:48;;;;;;;;;;;;;;;11.19;90.91211;101417.8;;;;-76
2023/01/01 13:46:52;;;;;;;;;;;;;;;11.16;90.99414;101418.4;;;;-75
2023/01/01 13:52:01;;;;;;;;;;;;;;;11.14;90.8252;101431.5;;;;-75
2023/01/01 13:56:27;;;;;;;12.6;1.8;;;;;;;;;;;;;-75
2023/01/01 13:56:51;;;;;;;;;;;;;;;11.14;91.44141;101430.5;;;;-75
2023/01/01 14:01:51;;;;;;;;;;;;;;;11.11;91.31641;101424;;;;-73
2023/01/01 14:06:51;;;;;;;;;;;;;;;11.1;91.40039;101429.3;;;;-73
2023/01/01 14:11:47;;;;;;;;;;;;;;;11.08;91.54102;101436.1;;;;-71
2023/01/01 14:16:47;;;;;;;;;;;;;;;11.07;91.52734;101443;;;;-73
2023/01/01 14:21:48;;;;;;;;;;;;;;;11.05;91.77734;101436.6;;;;-73
2023/01/01 14:26:26;;;;;;;11.8;1.7;;;;;;;;;;;;;-73
2023/01/01 14:26:47;;;;;;;;;;;;;;;11.05;91.4248;101422.2;;;;-74
2023/01/01 14:31:48;;;;;;;;;;;;;;;11.05;91.91895;101427.7;;;;-73
2023/01/01 14:36:52;;;;;;;;;;;;;;;11.03;91.58398;101431;;;;-73
2023/01/01 14:41:47;;;;;;;;;;;;;;;11.04;91.89746;101447.5;;;;-72
2023/01/01 14:46:49;;;;;;;;;;;;;;;11.01;92.0791;101439.6;;;;-72
2023/01/01 14:51:49;;;;;;;;;;;;;;;10.98;92.33594;101440.7;;;;-72
2023/01/01 14:56:31;;;;;;;12.5;1.9;;;;;;;;;;;;;-73
2023/01/01 14:56:49;;;;;;;;;;;;;;;10.94;92.23828;101447.1;;;;-73
2023/01/01 15:01:47;;;;;;;;;;;;;;;10.9;92.18652;101449.2;;;;-73
2023/01/01 15:06:47;;;;;;;;;;;;;;;10.88;93.05469;101446.4;;;;-74
2023/01/01 15:11:47;;;;;;;;;;;;;;;10.84;92.85742;101443.3;;;;-73
2023/01/01 15:16:47;;;;;;;;;;;;;;;10.8;93.70996;101441.9;;;;-72
2023/01/01 15:21:47;;;;;;;;;;;;;;;10.78;93.54004;101443.7;;;;-73
2023/01/01 15:26:29;;;;;;;6.9;1.9;;;;;;;;;;;;;-72
2023/01/01 15:26:54;;;;;;;;;;;;;;;10.75;94.37207;101449.4;;;;-73
2023/01/01 15:31:49;;;;;;;;;;;;;;;10.71;94.29688;101455;;;;-73
2023/01/01 15:36:47;;;;;;;;;;;;;;;10.68;94.62109;101459.9;;;;-73
2023/01/01 15:41:49;;;;;;;;;;;;;;;10.65;95.24316;101461.3;;;;-72
2023/01/01 15:46:52;;;;;;;;;;;;;;;10.61;95.58594;101458.3;;;;-72
2023/01/01 15:51:48;;;;;;;;;;;;;;;10.57;95.35742;101462.8;;;;-72
2023/01/01 15:56:28;;;;;;;12.2;2.8;;;;;;;;;;;;;-72
2023/01/01 15:56:47;;;;;;;;;;;;;;;10.54;95.8916;101457.2;;;;-72
2023/01/01 16:01:47;;;;;;;;;;;;;;;10.49;96.1875;101446.4;;;;-72
2023/01/01 16:06:51;;;;;;;;;;;;;;;10.45;96.50977;101440.9;;;;-76
2023/01/01 16:11:48;;;;;;;;;;;;;;;10.43;96.55859;101447.8;;;;-77
2023/01/01 16:16:51;;;;;;;;;;;;;;;10.39;96.98242;101450.5;;;;-80
2023/01/01 16:21:47;;;;;;;;;;;;;;;10.37;97.29688;101454.9;;;;-76
2023/01/01 16:26:28;;;;;;;12.3;2.9;;;;;;;;;;;;;-77
2023/01/01 16:26:49;;;;;;;;;;;;;;;10.35;97.15039;101441.3;;;;-75
2023/01/01 16:31:48;;;;;;;;;;;;;;;10.32;97.65723;101441.9;;;;-77
2023/01/01 16:36:47;;;;;;;;;;;;;;;10.31;97.70117;101439.7;;;;-77
2023/01/01 16:41:47;;;;;;;;;;;;;;;10.31;97.79785;101443;;;;-76
2023/01/01 16:46:47;;;;;;;;;;;;;;;10.31;97.75684;101434.6;;;;-77
2023/01/01 16:51:47;;;;;;;;;;;;;;;10.3;97.88574;101418.3;;;;-77
2023/01/01 16:56:30;;;;;;;12.8;2.7;;;;;;;;;;;;;-77
2023/01/01 16:56:47;;;;;;;;;;;;;;;10.3;97.75391;101427.1;;;;-76
2023/01/01 17:01:47;;;;;;;;;;;;;;;10.29;98.19238;101425.3;;;;-77
2023/01/01 17:06:47;;;;;;;;;;;;;;;10.29;98.12402;101426.9;;;;-79
2023/01/01 17:11:47;;;;;;;;;;;;;;;10.28;98.29785;101417.6;;;;-76
2023/01/01 17:16:47;;;;;;;;;;;;;;;10.26;98.43652;101413.1;;;;-77
2023/01/01 17:21:48;;;;;;;;;;;;;;;10.25;98.52344;101402.5;;;;-77
2023/01/01 17:26:30;;;;;;;12.8;2.9;;;;;;;;;;;;;-76
2023/01/01 17:26:47;;;;;;;;;;;;;;;10.24;98.6084;101393.8;;;;-77
2023/01/01 17:31:47;;;;;;;;;;;;;;;10.23;98.69434;101381.6;;;;-77
2023/01/01 17:36:48;;;;;;;;;;;;;;;10.22;98.69238;101380.8;;;;-78
2023/01/01 17:41:47;;;;;;;;;;;;;;;10.22;98.82422;101379.4;;;;-77
2023/01/01 17:46:47;;;;;;;;;;;;;;;10.21;98.83105;101371.7;;;;-77
2023/01/01 17:51:47;;;;;;;;;;;;;;;10.22;98.92383;101375.6;;;;-76
2023/01/01 17:56:32;;;;;;;8.3;2.9;;;;;;;;;;;;;-77
2023/01/01 17:56:47;;;;;;;;;;;;;;;10.2;98.89746;101376.5;;;;-76
2023/01/01 18:01:47;;;;;;;;;;;;;;;10.2;99.06055;101374.4;;;;-76
2023/01/01 18:06:47;;;;;;;;;;;;;;;10.18;99.36426;101368.1;;;;-77
2023/01/01 18:11:47;;;;;;;;;;;;;;;10.17;99.2832;101351.7;;;;-77
2023/01/01 18:16:47;;;;;;;;;;;;;;;10.15;99.6543;101344.8;;;;-73
2023/01/01 18:21:48;;;;;;;;;;;;;;;10.15;99.38867;101345;;;;-72
2023/01/01 18:26:34;;;;;;;11.4;2.9;;;;;;;;;;;;;-73
2023/01/01 18:26:47;;;;;;;;;;;;;;;10.14;99.6084;101345.5;;;;-75
2023/01/01 18:31:47;;;;;;;;;;;;;;;10.13;99.60645;101334.3;;;;-72
2023/01/01 18:36:49;;;;;;;;;;;;;;;10.13;99.41992;101337.4;;;;-73
2023/01/01 18:41:59;;;;;;;;;;;;;;;10.12;99.64844;101333.8;;;;-75
2023/01/01 18:46:47;;;;;;;;;;;;;;;10.11;99.20605;101335.6;;;;-74
2023/01/01 18:51:50;;;;;;;;;;;;;;;10.11;99.01953;101324.5;;;;-72
2023/01/01 18:56:34;;;;;;;9.6;2.7;;;;;;;;;;;;;-73
2023/01/01 18:56:47;;;;;;;;;;;;;;;10.12;98.76855;101316.1;;;;-74
2023/01/01 19:01:48;;;;;;;;;;;;;;;10.13;98.33105;101323.5;;;;-72
2023/01/01 19:06:47;;;;;;;;;;;;;;;10.12;98.56934;101332.4;;;;-73
2023/01/01 19:11:47;;;;;;;;;;;;;;;10.09;98.91699;101344.3;;;;-74
2023/01/01 19:16:47;;;;;;;;;;;;;;;10.05;99.59863;101351.3;;;;-75
2023/01/01 19:21:48;;;;;;;;;;;;;;;9.99;100;101352.2;;;;-79
2023/01/01 19:26:35;;;;;;;7.4;1.6;;;;;;;;;;;;;-78
2023/01/01 19:26:48;;;;;;;;;;;;;;;9.94;100;101367.1;;;;-76
2023/01/01 19:31:47;;;;;;;;;;;;;;;9.92;100;101355.6;;;;-79
2023/01/01 19:36:47;;;;;;;;;;;;;;;9.86;100;101353.7;;;;-78
2023/01/01 19:41:47;;;;;;;;;;;;;;;9.82;100;101347.2;;;;-77
2023/01/01 19:46:47;;;;;;;;;;;;;;;9.79;100;101353.3;;;;-75
2023/01/01 19:51:48;;;;;;;;;;;;;;;9.75;100;101341.2;;;;-77
2023/01/01 19:56:38;;;;;;;5.3;1.7;;;;;;;;;;;;;-77
2023/01/01 19:56:48;;;;;;;;;;;;;;;9.7;100;101337.1;;;;-77
2023/01/01 20:01:47;;;;;;;;;;;;;;;9.68;100;101329;;;;-77
2023/01/01 20:06:47;;;;;;;;;;;;;;;9.63;100;101327.4;;;;-76
2023/01/01 20:11:47;;;;;;;;;;;;;;;9.6;100;101319.7;;;;-76
2023/01/01 20:16:49;;;;;;;;;;;;;;;9.62;100;101307;;;;-76
2023/01/01 20:26:40;;;;;;;6.9;2;;;;;;;;;;;;;-75
2023/01/01 20:26:49;;;;;;;;;;;;;;;9.62;100;101262.3;;;;-75
2023/01/01 20:31:47;;;;;;;;;;;;;;;9.63;100;101270.7;;;;-75
2023/01/01 20:41:47;;;;;;;;;;;;;;;9.64;100;101237.2;;;;-76
2023/01/01 20:46:48;;;;;;;;;;;;;;;9.64;100;101227.2;;;;-75
2023/01/01 20:51:48;;;;;;;;;;;;;;;9.65;100;101232.1;;;;-74
2023/01/01 20:56:38;;;;;;;5.8;2.4;;;;;;;;;;;;;-75
2023/01/01 20:56:48;;;;;;;;;;;;;;;9.64;100;101222.8;;;;-75
2023/01/01 21:01:47;;;;;;;;;;;;;;;9.66;100;101213.6;;;;-76
2023/01/01 21:06:47;;;;;;;;;;;;;;;9.64;100;101202.6;;;;-74
2023/01/01 21:11:48;;;;;;;;;;;;;;;9.65;100;101196.8;;;;-75
2023/01/01 21:16:48;;;;;;;;;;;;;;;9.66;100;101189.8;;;;-76
2023/01/01 21:21:51;;;;;;;;;;;;;;;9.67;100;101180.5;;;;-74
2023/01/01 21:26:41;;;;;;;6.6;2.9;;;;;;;;;;;;;-75
2023/01/01 21:26:51;;;;;;;;;;;;;;;9.66;100;101173.9;;;;-75
2023/01/01 21:31:47;;;;;;;;;;;;;;;9.66;100;101171.3;;;;-76
2023/01/01 21:36:47;;;;;;;;;;;;;;;9.67;100;101157.6;;;;-77
2023/01/01 21:41:47;;;;;;;;;;;;;;;9.67;100;101150.1;;;;-77
2023/01/01 21:46:51;;;;;;;;;;;;;;;9.67;100;101132.4;;;;-74
2023/01/01 21:51:53;;;;;;;;;;;;;;;9.68;100;101116;;;;-76
2023/01/01 21:56:40;;;;;;;8.5;3.6;;;;;;;;;;;;;-74
2023/01/01 21:56:52;;;;;;;;;;;;;;;9.68;100;101103.7;;;;-75
2023/01/01 22:01:57;;;;;;;;;;;;;;;9.7;100;101102.2;;;;-75
2023/01/01 22:06:48;;;;;;;;;;;;;;;9.7;100;101088.6;;;;-73
2023/01/01 22:11:50;;;;;;;;;;;;;;;9.69;100;101085.7;;;;-74
2023/01/01 22:16:47;;;;;;;;;;;;;;;9.7;100;101086.1;;;;-73
2023/01/01 22:21:48;;;;;;;;;;;;;;;9.7;100;101080.5;;;;-74
2023/01/01 22:26:41;;;;;;;7.7;3.5;;;;;;;;;;;;;-74
2023/01/01 22:26:51;;;;;;;;;;;;;;;9.7;100;101066.7;;;;-74
2023/01/01 22:31:47;;;;;;;;;;;;;;;9.72;100;101072.3;;;;-74
2023/01/01 22:36:47;;;;;;;;;;;;;;;9.73;100;101072.7;;;;-74
2023/01/01 22:41:47;;;;;;;;;;;;;;;9.74;100;101062.9;;;;-73
2023/01/01 22:46:47;;;;;;;;;;;;;;;9.74;100;101066.8;;;;-74
2023/01/01 22:51:48;;;;;;;;;;;;;;;9.75;100;101066.9;;;;-74
2023/01/01 22:56:41;;;;;;;7.2;4.1;;;;;;;;;;;;;-74
2023/01/01 22:56:51;;;;;;;;;;;;;;;9.75;100;101063.6;;;;-74
2023/01/01 23:01:47;;;;;;;;;;;;;;;9.77;100;101057.3;;;;-75
2023/01/01 23:06:47;;;;;;;;;;;;;;;9.78;100;101059.8;;;;-75
2023/01/01 23:11:47;;;;;;;;;;;;;;;9.79;100;101049.4;;;;-74
2023/01/01 23:16:47;;;;;;;;;;;;;;;9.79;100;101050.1;;;;-74
2023/01/01 23:21:47;;;;;;;;;;;;;;;9.79;100;101054.6;;;;-75
2023/01/01 23:26:44;;;;;;;7.4;3.7;;;;;;;;;;;;;-75
2023/01/01 23:26:54;;;;;;;;;;;;;;;9.79;100;101040.3;;;;-75
2023/01/01 23:31:50;;;;;;;;;;;;;;;9.78;100;101033.2;;;;-75
2023/01/01 23:36:47;;;;;;;;;;;;;;;9.77;100;101029.8;;;;-75
2023/01/01 23:41:48;;;;;;;;;;;;;;;9.79;100;101017.9;;;;-74
2023/01/01 23:46:47;;;;;;;;;;;;;;;9.77;100;101009.4;;;;-74
2023/01/01 23:51:47;;;;;;;;;;;;;;;9.78;100;101001.2;;;;-74
2023/01/01 23:56:42;;;;;;;6.6;3.4;;;;;;;;;;;;;-75
2023/01/01 23:56:52;;;;;;;;;;;;;;;9.76;100;100987.5;;;;-75
